createdAt,value
2018-01-26T06:57:39.890Z,9.28
2018-01-26T06:58:39.869Z,9.30
2018-01-26T06:59:39.797Z,9.38
2018-01-26T07:00:39.796Z,9.32
2018-01-26T07:01:39.796Z,9.20
2018-01-26T07:02:39.782Z,9.09
2018-01-26T07:03:39.784Z,9.02
2018-01-26T07:04:39.778Z,8.91
2018-01-26T07:05:39.770Z,9.06
2018-01-26T07:06:39.771Z,9.10
2018-01-26T07:07:39.762Z,9.12
2018-01-26T07:08:39.752Z,9.25
2018-01-26T07:09:39.750Z,9.24
2018-01-26T07:10:39.745Z,9.20
2018-01-26T07:11:39.740Z,9.32
2018-01-26T07:12:39.735Z,9.23
2018-01-26T07:13:39.728Z,9.32
2018-01-26T07:14:39.732Z,9.30
2018-01-26T07:15:39.724Z,9.31
2018-01-26T07:16:39.723Z,9.34
2018-01-26T07:17:39.716Z,9.23
2018-01-26T07:18:39.718Z,9.27
2018-01-26T07:19:39.716Z,9.28
2018-01-26T07:20:39.705Z,9.27
2018-01-26T07:21:39.699Z,9.27
2018-01-26T07:22:39.696Z,9.27
2018-01-26T07:23:39.718Z,9.04
2018-01-26T07:24:39.683Z,8.73
2018-01-26T07:25:39.677Z,8.83
2018-01-26T07:26:39.679Z,8.88
2018-01-26T07:27:39.674Z,8.84
2018-01-26T07:28:39.679Z,8.83
2018-01-26T07:29:39.671Z,8.96
2018-01-26T07:30:39.660Z,8.93
2018-01-26T07:31:39.662Z,8.86
2018-01-26T07:32:39.659Z,8.79
2018-01-26T07:33:39.651Z,8.90
2018-01-26T07:34:39.646Z,9.01
2018-01-26T07:35:39.643Z,9.05
2018-01-26T07:36:48.281Z,9.13
2018-01-26T07:38:33.023Z,8.99
2018-01-26T07:39:33.015Z,9.10
2018-01-26T07:40:33.004Z,9.20
2018-01-26T07:41:33.004Z,9.20
2018-01-26T07:42:33.003Z,9.18
2018-01-26T07:43:33.032Z,8.96
2018-01-26T07:44:33.015Z,8.99
2018-01-26T07:45:32.981Z,8.97
2018-01-26T07:46:32.974Z,9.06
2018-01-26T07:47:32.978Z,9.04
2018-01-26T07:48:32.966Z,8.88
2018-01-26T07:49:32.968Z,8.81
2018-01-26T07:50:32.979Z,8.91
2018-01-26T07:51:32.959Z,8.86
2018-01-26T07:52:32.954Z,9.10
2018-01-26T07:53:41.574Z,9.06
2018-01-26T07:55:36.452Z,9.02
2018-01-26T07:56:26.340Z,9.09
2018-01-26T07:58:47.398Z,8.68
2018-01-26T07:59:47.353Z,8.62
2018-01-26T08:00:47.348Z,8.60
2018-01-26T08:01:47.355Z,8.68
2018-01-26T08:02:47.341Z,8.50
2018-01-26T08:03:47.335Z,8.50
2018-01-26T08:04:47.331Z,8.60
2018-01-26T08:05:47.331Z,8.26
2018-01-26T08:06:47.324Z,8.12
2018-01-26T08:07:47.326Z,8.28
2018-01-26T08:08:47.333Z,8.11
2018-01-26T08:09:47.312Z,8.07
2018-01-26T08:10:47.318Z,8.32
2018-01-26T08:11:47.304Z,8.26
2018-01-26T08:12:47.303Z,8.30
2018-01-26T08:13:47.298Z,8.10
2018-01-26T08:14:47.289Z,8.29
2018-01-26T08:15:47.291Z,8.15
2018-01-26T08:16:47.287Z,8.29
2018-01-26T08:17:47.285Z,8.28
2018-01-26T08:18:47.270Z,8.14
2018-01-26T08:19:47.265Z,8.11
2018-01-26T08:20:47.264Z,8.32
2018-01-26T08:21:47.287Z,8.37
2018-01-26T08:22:47.260Z,8.28
2018-01-26T08:23:47.259Z,8.39
2018-01-26T08:24:47.252Z,8.36
2018-01-26T08:25:47.245Z,8.18
2018-01-26T08:26:47.242Z,8.39
2018-01-26T08:27:47.238Z,8.45
2018-01-26T08:28:47.244Z,8.30
2018-01-26T08:29:47.227Z,8.45
2018-01-26T08:30:47.219Z,8.35
2018-01-26T08:31:47.213Z,8.30
2018-01-26T08:32:47.208Z,8.42
2018-01-26T08:33:47.209Z,8.47
2018-01-26T08:34:47.209Z,8.54
2018-01-26T08:35:47.204Z,8.58
2018-01-26T08:36:47.201Z,8.44
2018-01-26T08:37:47.193Z,8.26
2018-01-26T08:38:47.184Z,8.44
2018-01-26T08:39:47.186Z,8.62
2018-01-26T08:40:47.178Z,8.69
2018-01-26T08:41:47.170Z,8.87
2018-01-26T08:42:47.164Z,8.68
2018-01-26T08:43:47.167Z,8.76
2018-01-26T08:44:47.163Z,8.91
2018-01-26T08:45:47.153Z,8.72
2018-01-26T08:46:47.154Z,8.60
2018-01-26T08:47:47.151Z,8.66
2018-01-26T08:48:47.143Z,8.73
2018-01-26T08:49:47.138Z,8.94
2018-01-26T08:50:47.134Z,9.12
2018-01-26T08:51:47.132Z,9.21
2018-01-26T08:52:47.127Z,9.18
2018-01-26T08:53:47.117Z,9.21
2018-01-26T08:54:47.119Z,9.16
2018-01-26T08:55:48.933Z,9.21
2018-01-26T08:56:47.108Z,9.21
2018-01-26T08:57:47.108Z,9.06
2018-01-26T08:58:47.102Z,8.97
2018-01-26T08:59:47.098Z,8.94
2018-01-26T09:00:47.095Z,8.73
2018-01-26T09:01:47.088Z,8.63
2018-01-26T09:02:47.080Z,8.75
2018-01-26T09:03:47.078Z,8.91
2018-01-26T09:04:47.070Z,8.94
2018-01-26T09:05:47.068Z,8.83
2018-01-26T09:06:47.076Z,8.72
2018-01-26T09:07:47.061Z,8.79
2018-01-26T09:08:47.058Z,8.87
2018-01-26T09:09:47.053Z,8.73
2018-01-26T09:10:47.052Z,8.75
2018-01-26T09:11:47.049Z,8.78
2018-01-26T09:12:47.084Z,9.02
2018-01-26T09:13:47.052Z,9.23
2018-01-26T09:14:47.036Z,9.30
2018-01-26T09:15:47.026Z,9.45
2018-01-26T09:16:47.027Z,9.48
2018-01-26T09:17:47.023Z,9.60
2018-01-26T09:18:47.017Z,9.45
2018-01-26T09:19:47.014Z,9.49
2018-01-26T09:20:47.012Z,9.60
2018-01-26T09:21:47.002Z,9.60
2018-01-26T09:22:47.004Z,9.49
2018-01-26T09:23:47.053Z,9.66
2018-01-26T09:24:46.998Z,9.61
2018-01-26T09:25:46.985Z,9.53
2018-01-26T09:26:46.979Z,9.43
2018-01-26T09:27:46.978Z,9.45
2018-01-26T09:28:46.976Z,9.56
2018-01-26T09:29:46.975Z,9.53
2018-01-26T09:30:46.971Z,9.58
2018-01-26T09:31:46.962Z,9.57
2018-01-26T09:32:46.961Z,9.63
2018-01-26T09:33:46.956Z,9.57
2018-01-26T09:34:46.953Z,9.63
2018-01-26T09:35:46.950Z,9.57
2018-01-26T09:36:46.943Z,9.61
2018-01-26T09:37:46.935Z,9.61
2018-01-26T09:38:46.935Z,9.79
2018-01-26T09:39:46.937Z,9.61
2018-01-26T09:40:46.928Z,9.68
2018-01-26T09:41:46.926Z,9.73
2018-01-26T09:42:46.917Z,9.58
2018-01-26T09:43:46.915Z,9.45
2018-01-26T09:44:46.908Z,9.64
2018-01-26T09:45:46.906Z,9.60
2018-01-26T09:46:46.901Z,9.49
2018-01-26T09:47:46.919Z,9.61
2018-01-26T09:48:46.927Z,9.66
2018-01-26T09:49:46.925Z,9.67
2018-01-26T09:50:46.892Z,9.79
2018-01-26T09:51:46.879Z,9.73
2018-01-26T09:52:46.875Z,9.71
2018-01-26T09:53:46.879Z,9.64
2018-01-26T09:54:46.873Z,9.56
2018-01-26T09:55:46.963Z,9.67
2018-01-26T09:56:46.971Z,9.60
2018-01-26T09:57:46.860Z,9.64
2018-01-26T09:58:46.860Z,9.52
2018-01-26T09:59:46.918Z,9.63
2018-01-26T10:00:46.854Z,9.66
2018-01-26T10:01:46.853Z,9.64
2018-01-26T10:02:46.835Z,9.71
2018-01-26T10:03:46.836Z,9.64
2018-01-26T10:04:46.839Z,9.71
2018-01-26T10:05:46.841Z,9.71
2018-01-26T10:06:46.830Z,9.68
2018-01-26T10:07:46.822Z,9.63
2018-01-26T10:08:46.813Z,9.61
2018-01-26T10:09:46.812Z,9.70
2018-01-26T10:10:46.804Z,9.79
2018-01-26T10:11:46.811Z,9.68
2018-01-26T10:12:46.802Z,9.73
2018-01-26T10:13:46.794Z,9.71
2018-01-26T10:14:46.798Z,9.78
2018-01-26T10:15:46.786Z,9.73
2018-01-26T10:16:46.785Z,9.86
2018-01-26T10:17:46.775Z,9.78
2018-01-26T10:18:46.772Z,9.93
2018-01-26T10:19:46.772Z,9.81
2018-01-26T10:20:46.763Z,9.79
2018-01-26T10:21:46.766Z,9.82
2018-01-26T10:22:46.763Z,9.89
2018-01-26T10:23:46.758Z,9.82
2018-01-26T10:24:46.791Z,9.86
2018-01-26T10:25:46.746Z,9.82
2018-01-26T10:26:46.744Z,9.82
2018-01-26T10:27:46.790Z,9.79
2018-01-26T10:28:46.738Z,9.78
2018-01-26T10:29:46.782Z,9.66
2018-01-26T10:30:46.725Z,9.70
2018-01-26T10:31:46.723Z,9.85
2018-01-26T10:32:46.750Z,9.94
2018-01-26T10:33:46.714Z,9.99
2018-01-26T10:34:46.711Z,10.12
2018-01-26T10:35:46.704Z,10.17
2018-01-26T10:36:46.704Z,10.26
2018-01-26T10:37:46.702Z,10.30
2018-01-26T10:38:46.703Z,10.37
2018-01-26T10:39:46.695Z,10.30
2018-01-26T10:40:46.686Z,10.33
2018-01-26T10:41:46.688Z,10.34
2018-01-26T10:42:46.681Z,10.24
2018-01-26T10:43:46.677Z,10.42
2018-01-26T10:44:46.674Z,10.60
2018-01-26T10:45:46.673Z,10.62
2018-01-26T10:46:46.669Z,10.51
2018-01-26T10:47:46.688Z,10.55
2018-01-26T10:48:46.758Z,10.40
2018-01-26T10:49:46.653Z,10.40
2018-01-26T10:50:46.654Z,9.99
2018-01-26T10:51:46.663Z,9.68
2018-01-26T10:52:46.641Z,9.78
2018-01-26T10:53:46.645Z,10.00
2018-01-26T10:54:46.640Z,10.26
2018-01-26T10:55:46.642Z,10.34
2018-01-26T10:56:46.635Z,10.37
2018-01-26T10:57:46.626Z,10.60
2018-01-26T10:58:46.624Z,10.42
2018-01-26T10:59:46.620Z,10.53
2018-01-26T11:00:46.617Z,10.42
2018-01-26T11:01:46.693Z,10.26
2018-01-26T11:02:46.609Z,10.33
2018-01-26T11:03:46.610Z,10.19
2018-01-26T11:04:46.604Z,10.06
2018-01-26T11:05:46.606Z,9.58
2018-01-26T11:06:46.608Z,9.57
2018-01-26T11:07:46.590Z,9.78
2018-01-26T11:08:46.617Z,10.07
2018-01-26T11:09:46.583Z,10.19
2018-01-26T11:10:46.579Z,10.26
2018-01-26T11:11:46.580Z,10.39
2018-01-26T11:12:46.568Z,10.18
2018-01-26T11:13:46.573Z,9.97
2018-01-26T11:14:46.563Z,10.00
2018-01-26T11:15:46.557Z,10.19
2018-01-26T11:16:46.563Z,10.06
2018-01-26T11:17:46.557Z,9.83
2018-01-26T11:18:46.547Z,9.70
2018-01-26T11:19:46.542Z,9.71
2018-01-26T11:20:46.549Z,9.70
2018-01-26T11:21:46.536Z,9.66
2018-01-26T11:22:46.530Z,9.68
2018-01-26T11:23:46.532Z,9.96
2018-01-26T11:24:46.528Z,9.86
2018-01-26T11:25:46.523Z,9.81
2018-01-26T11:26:46.518Z,9.85
2018-01-26T11:27:46.516Z,9.97
2018-01-26T11:28:46.514Z,10.19
2018-01-26T11:29:46.511Z,10.07
2018-01-26T11:30:46.509Z,10.06
2018-01-26T11:31:46.524Z,10.09
2018-01-26T11:32:46.499Z,9.89
2018-01-26T11:33:46.497Z,9.78
2018-01-26T11:34:46.488Z,9.61
2018-01-26T11:35:46.487Z,9.68
2018-01-26T11:36:46.482Z,10.01
2018-01-26T11:37:46.487Z,10.24
2018-01-26T11:38:46.479Z,10.28
2018-01-26T11:39:46.496Z,10.04
2018-01-26T11:40:46.465Z,10.09
2018-01-26T11:41:46.463Z,10.10
2018-01-26T11:42:46.455Z,10.06
2018-01-26T11:43:46.450Z,10.18
2018-01-26T11:44:46.450Z,10.37
2018-01-26T11:45:46.460Z,10.43
2018-01-26T11:46:46.448Z,10.44
2018-01-26T11:47:46.460Z,10.53
2018-01-26T11:48:46.440Z,10.58
2018-01-26T11:49:46.523Z,10.44
2018-01-26T11:50:46.429Z,10.37
2018-01-26T11:51:46.428Z,10.34
2018-01-26T11:52:46.421Z,10.09
2018-01-26T11:53:46.414Z,10.03
2018-01-26T11:54:46.415Z,10.03
2018-01-26T11:55:46.410Z,10.03
2018-01-26T11:56:46.424Z,10.26
2018-01-26T11:57:46.400Z,10.47
2018-01-26T11:58:46.396Z,10.40
2018-01-26T11:59:46.397Z,10.40
2018-01-26T12:00:46.388Z,10.39
2018-01-26T12:01:46.394Z,10.34
2018-01-26T12:02:46.386Z,10.42
2018-01-26T12:03:46.388Z,10.32
2018-01-26T12:04:46.378Z,10.32
2018-01-26T12:05:46.373Z,10.19
2018-01-26T12:06:46.375Z,10.21
2018-01-26T12:07:46.371Z,10.15
2018-01-26T12:08:46.395Z,10.34
2018-01-26T12:09:46.354Z,10.42
2018-01-26T12:10:46.369Z,10.28
2018-01-26T12:11:46.896Z,10.33
2018-01-26T12:12:46.349Z,10.32
2018-01-26T12:13:46.342Z,10.36
2018-01-26T12:14:46.343Z,10.37
2018-01-26T12:15:46.334Z,10.43
2018-01-26T12:16:46.390Z,10.22
2018-01-26T12:17:46.330Z,10.17
2018-01-26T12:18:46.319Z,10.03
2018-01-26T12:19:46.354Z,9.79
2018-01-26T12:20:46.321Z,9.71
2018-01-26T12:21:46.319Z,9.89
2018-01-26T12:22:46.305Z,9.94
2018-01-26T12:23:46.309Z,10.04
2018-01-26T12:24:46.306Z,9.97
2018-01-26T12:25:46.299Z,10.03
2018-01-26T12:26:46.291Z,9.97
2018-01-26T12:27:46.291Z,9.93
2018-01-26T12:28:46.289Z,9.94
2018-01-26T12:29:46.286Z,10.00
2018-01-26T12:30:46.281Z,9.99
2018-01-26T12:31:46.329Z,9.89
2018-01-26T12:32:46.275Z,9.94
2018-01-26T12:33:46.269Z,9.78
2018-01-26T12:34:46.260Z,9.75
2018-01-26T12:35:46.261Z,9.78
2018-01-26T12:36:46.267Z,9.73
2018-01-26T12:37:46.262Z,9.68
2018-01-26T12:38:46.257Z,9.82
2018-01-26T12:39:46.242Z,9.83
2018-01-26T12:40:46.251Z,9.85
2018-01-26T12:41:46.239Z,9.82
2018-01-26T12:42:46.232Z,9.93
2018-01-26T12:43:46.235Z,9.86
2018-01-26T12:44:46.225Z,9.99
2018-01-26T12:45:46.229Z,9.93
2018-01-26T12:46:46.251Z,9.96
2018-01-26T12:47:46.214Z,9.96
2018-01-26T12:48:46.248Z,9.99
2018-01-26T12:49:46.209Z,9.86
2018-01-26T12:50:46.203Z,9.93
2018-01-26T12:51:46.205Z,9.93
2018-01-26T12:52:46.197Z,9.97
2018-01-26T12:53:46.191Z,10.01
2018-01-26T12:54:46.190Z,10.03
2018-01-26T12:55:46.192Z,10.09
2018-01-26T12:56:54.823Z,10.06
2018-01-26T12:58:39.672Z,10.04
2018-01-26T12:59:39.685Z,10.03
2018-01-26T13:00:39.613Z,10.18
2018-01-26T13:01:39.579Z,10.18
2018-01-26T13:02:39.581Z,10.24
2018-01-26T13:03:39.623Z,10.21
2018-01-26T13:04:39.569Z,10.32
2018-01-26T13:05:39.570Z,10.26
2018-01-26T13:06:39.546Z,10.19
2018-01-26T13:07:39.547Z,10.22
2018-01-26T13:08:39.543Z,10.15
2018-01-26T13:09:39.539Z,10.21
2018-01-26T13:10:39.536Z,10.22
2018-01-26T13:11:39.533Z,10.06
2018-01-26T13:12:39.528Z,10.22
2018-01-26T13:13:39.572Z,10.09
2018-01-26T13:14:39.577Z,9.89
2018-01-26T13:15:39.562Z,10.04
2018-01-26T13:16:39.509Z,10.01
2018-01-26T13:17:39.510Z,9.99
2018-01-26T13:18:39.509Z,9.94
2018-01-26T13:19:39.510Z,9.97
2018-01-26T13:20:39.499Z,9.85
2018-01-26T13:21:39.498Z,9.78
2018-01-26T13:22:39.511Z,9.99
2018-01-26T13:23:39.489Z,10.06
2018-01-26T13:24:39.481Z,10.00
2018-01-26T13:25:39.482Z,9.97
2018-01-26T13:26:39.482Z,9.94
2018-01-26T13:27:39.494Z,9.71
2018-01-26T13:28:39.471Z,9.86
2018-01-26T13:29:39.462Z,9.94
2018-01-26T13:30:39.464Z,9.99
2018-01-26T13:31:39.458Z,9.96
2018-01-26T13:32:39.456Z,9.96
2018-01-26T13:33:39.451Z,9.94
2018-01-26T13:34:39.445Z,9.88
2018-01-26T13:35:39.436Z,9.99
2018-01-26T13:36:39.442Z,9.96
2018-01-26T13:37:39.434Z,10.01
2018-01-26T13:38:39.425Z,9.99
2018-01-26T13:39:39.425Z,9.94
2018-01-26T13:40:39.427Z,9.91
2018-01-26T13:41:39.479Z,9.89
2018-01-26T13:42:39.420Z,9.96
2018-01-26T13:43:39.413Z,9.94
2018-01-26T13:44:39.408Z,9.86
2018-01-26T13:45:39.413Z,9.81
2018-01-26T13:46:39.405Z,9.94
2018-01-26T13:47:39.396Z,9.86
2018-01-26T13:48:39.392Z,9.81
2018-01-26T13:49:39.395Z,9.76
2018-01-26T13:50:39.390Z,9.66
2018-01-26T13:51:39.375Z,9.82
2018-01-26T13:52:39.380Z,9.76
2018-01-26T13:53:39.369Z,9.79
2018-01-26T13:54:39.371Z,9.89
2018-01-26T13:55:39.364Z,9.78
2018-01-26T13:56:39.362Z,9.75
2018-01-26T13:57:39.358Z,9.66
2018-01-26T13:58:39.353Z,9.67
2018-01-26T13:59:39.364Z,9.64
2018-01-26T14:00:39.349Z,9.70
2018-01-26T14:01:39.338Z,9.73
2018-01-26T14:02:39.337Z,9.73
2018-01-26T14:03:39.335Z,9.82
2018-01-26T14:04:39.330Z,9.76
2018-01-26T14:05:39.356Z,9.79
2018-01-26T14:06:39.318Z,9.68
2018-01-26T14:07:39.316Z,9.68
2018-01-26T14:08:39.324Z,9.61
2018-01-26T14:09:39.319Z,9.78
2018-01-26T14:10:39.311Z,9.68
2018-01-26T14:11:39.308Z,9.75
2018-01-26T14:12:39.301Z,9.75
2018-01-26T14:13:47.942Z,9.75
2018-01-26T14:15:32.715Z,9.88
2018-01-26T14:16:32.690Z,9.73
2018-01-26T14:17:32.721Z,9.78
2018-01-26T14:18:32.719Z,9.67
2018-01-26T14:19:32.685Z,9.63
2018-01-26T14:20:32.656Z,9.76
2018-01-26T14:21:32.655Z,9.91
2018-01-26T14:22:32.648Z,9.78
2018-01-26T14:23:32.664Z,9.76
2018-01-26T14:24:32.636Z,9.78
2018-01-26T14:25:32.641Z,9.73
2018-01-26T14:26:32.635Z,9.73
2018-01-26T14:27:32.627Z,9.67
2018-01-26T14:28:32.628Z,9.71
2018-01-26T14:29:32.619Z,9.67
2018-01-26T14:30:32.612Z,9.70
2018-01-26T14:31:32.611Z,9.66
2018-01-26T14:32:32.613Z,9.76
2018-01-26T14:33:32.611Z,9.64
2018-01-26T14:34:32.599Z,9.76
2018-01-26T14:35:32.645Z,9.68
2018-01-26T14:36:32.589Z,9.70
2018-01-26T14:37:32.588Z,9.68
2018-01-26T14:38:32.641Z,9.60
2018-01-26T14:39:32.659Z,9.63
2018-01-26T14:40:32.580Z,9.68
2018-01-26T14:41:32.583Z,9.71
2018-01-26T14:42:32.573Z,9.82
2018-01-26T14:43:32.598Z,9.71
2018-01-26T14:44:32.563Z,9.71
2018-01-26T14:45:32.561Z,9.73
2018-01-26T14:46:32.550Z,9.71
2018-01-26T14:47:32.552Z,9.78
2018-01-26T14:48:32.551Z,9.71
2018-01-26T14:49:32.537Z,9.57
2018-01-26T14:50:32.536Z,9.60
2018-01-26T14:51:32.539Z,9.67
2018-01-26T14:52:32.531Z,9.67
2018-01-26T14:53:32.537Z,9.73
2018-01-26T14:54:32.528Z,9.63
2018-01-26T14:55:32.523Z,9.61
2018-01-26T14:56:32.513Z,9.70
2018-01-26T14:57:32.510Z,9.58
2018-01-26T14:58:32.508Z,9.66
2018-01-26T14:59:32.535Z,9.58
2018-01-26T15:00:32.528Z,9.67
2018-01-26T15:01:32.502Z,9.63
2018-01-26T15:02:32.493Z,9.67
2018-01-26T15:03:32.486Z,9.75
2018-01-26T15:04:32.496Z,9.68
2018-01-26T15:05:32.489Z,9.75
2018-01-26T15:06:32.475Z,9.68
2018-01-26T15:07:32.467Z,9.67
2018-01-26T15:08:32.465Z,9.46
2018-01-26T15:09:32.487Z,9.50
2018-01-26T15:10:32.455Z,9.48
2018-01-26T15:11:32.462Z,9.43
2018-01-26T15:12:32.452Z,9.60
2018-01-26T15:13:32.449Z,9.56
2018-01-26T15:14:32.445Z,9.58
2018-01-26T15:15:32.436Z,9.56
2018-01-26T15:16:32.436Z,9.52
2018-01-26T15:17:32.431Z,9.48
2018-01-26T15:18:32.432Z,9.34
2018-01-26T15:19:32.432Z,9.43
2018-01-26T15:20:32.422Z,9.42
2018-01-26T15:21:32.500Z,9.48
2018-01-26T15:22:32.429Z,9.38
2018-01-26T15:23:32.476Z,9.46
2018-01-26T15:24:32.404Z,9.48
2018-01-26T15:25:32.401Z,9.48
2018-01-26T15:26:32.398Z,9.52
2018-01-26T15:27:32.389Z,9.38
2018-01-26T15:28:32.382Z,9.32
2018-01-26T15:29:32.384Z,9.40
2018-01-26T15:30:32.383Z,9.34
2018-01-26T15:31:32.382Z,9.40
2018-01-26T15:32:32.376Z,9.32
2018-01-26T15:33:32.364Z,9.42
2018-01-26T15:34:32.365Z,9.30
2018-01-26T15:35:32.355Z,9.23
2018-01-26T15:36:32.357Z,9.24
2018-01-26T15:37:32.350Z,9.21
2018-01-26T15:38:32.344Z,9.28
2018-01-26T15:39:32.342Z,9.30
2018-01-26T15:40:32.343Z,9.20
2018-01-26T15:41:32.346Z,9.31
2018-01-26T15:42:32.332Z,9.24
2018-01-26T15:43:32.324Z,9.28
2018-01-26T15:44:32.321Z,9.27
2018-01-26T15:45:32.319Z,9.25
2018-01-26T15:46:32.318Z,9.23
2018-01-26T15:47:32.308Z,9.25
2018-01-26T15:48:32.308Z,9.27
2018-01-26T15:49:32.301Z,9.25
2018-01-26T15:50:32.309Z,9.18
2018-01-26T15:51:32.304Z,9.20
2018-01-26T15:52:32.315Z,9.24
2018-01-26T15:53:32.279Z,9.18
2018-01-26T15:54:32.279Z,9.21
2018-01-26T15:55:32.275Z,9.27
2018-01-26T15:56:32.273Z,9.10
2018-01-26T15:57:32.269Z,9.10
2018-01-26T15:58:32.353Z,9.09
2018-01-26T15:59:32.265Z,9.21
2018-01-26T16:00:32.259Z,9.25
2018-01-26T16:01:32.254Z,9.06
2018-01-26T16:02:32.253Z,9.27
2018-01-26T16:03:32.241Z,9.06
2018-01-26T16:04:32.244Z,9.12
2018-01-26T16:05:32.234Z,9.18
2018-01-26T16:06:32.231Z,8.99
2018-01-26T16:07:32.227Z,8.97
2018-01-26T16:08:32.230Z,8.97
2018-01-26T16:09:32.214Z,9.02
2018-01-26T16:10:32.287Z,8.91
2018-01-26T16:11:32.235Z,8.78
2018-01-26T16:12:32.255Z,8.79
2018-01-26T16:13:32.234Z,8.78
2018-01-26T16:14:32.199Z,8.90
2018-01-26T16:15:32.193Z,8.87
2018-01-26T16:16:32.193Z,8.73
2018-01-26T16:17:32.180Z,8.87
2018-01-26T16:18:32.180Z,8.87
2018-01-26T16:19:32.447Z,8.83
2018-01-26T16:20:32.357Z,8.97
2018-01-26T16:21:32.174Z,8.96
2018-01-26T16:22:32.163Z,8.86
2018-01-26T16:23:32.160Z,8.63
2018-01-26T16:24:32.162Z,8.69
2018-01-26T16:25:32.150Z,8.65
2018-01-26T16:26:32.147Z,8.66
2018-01-26T16:27:32.145Z,8.68
2018-01-26T16:28:32.147Z,8.63
2018-01-26T16:29:32.130Z,8.58
2018-01-26T16:30:32.129Z,8.69
2018-01-26T16:31:32.131Z,8.83
2018-01-26T16:32:32.147Z,8.79
2018-01-26T16:33:32.123Z,8.76
2018-01-26T16:34:32.119Z,8.71
2018-01-26T16:35:32.102Z,8.65
2018-01-26T16:36:32.102Z,8.68
2018-01-26T16:37:32.093Z,8.69
2018-01-26T16:38:40.765Z,8.71
2018-01-26T16:40:25.511Z,8.88
2018-01-26T16:41:25.482Z,8.94
2018-01-26T16:42:25.526Z,8.96
2018-01-26T16:43:25.474Z,8.99
2018-01-26T16:44:25.480Z,8.97
2018-01-26T16:45:25.507Z,8.96
2018-01-26T16:46:25.453Z,8.96
2018-01-26T16:47:35.120Z,8.91
2018-01-26T16:49:27.949Z,9.04
2018-01-26T16:50:18.857Z,8.94
2018-01-26T16:51:18.835Z,8.94
2018-01-26T16:52:18.846Z,8.76
2018-01-26T16:53:18.840Z,8.93
2018-01-26T16:54:18.824Z,8.90
2018-01-26T16:55:18.812Z,8.91
2018-01-26T16:56:18.810Z,8.88
2018-01-26T16:57:18.810Z,8.88
2018-01-26T16:58:18.800Z,8.83
2018-01-26T16:59:18.795Z,8.96
2018-01-26T17:00:18.789Z,8.96
2018-01-26T17:01:18.792Z,8.94
2018-01-26T17:02:18.793Z,8.91
2018-01-26T17:03:18.782Z,8.91
2018-01-26T17:04:18.775Z,8.91
2018-01-26T17:05:18.773Z,8.90
2018-01-26T17:06:18.764Z,8.87
2018-01-26T17:07:18.764Z,8.91
2018-01-26T17:08:18.767Z,8.87
2018-01-26T17:09:18.752Z,8.84
2018-01-26T17:10:18.751Z,8.90
2018-01-26T17:11:18.743Z,8.91
2018-01-26T17:12:18.749Z,8.90
2018-01-26T17:13:18.743Z,8.90
2018-01-26T17:14:18.738Z,8.90
2018-01-26T17:15:18.733Z,8.86
2018-01-26T17:16:18.770Z,8.73
2018-01-26T17:17:18.719Z,8.71
2018-01-26T17:18:18.796Z,8.75
2018-01-26T17:19:18.733Z,8.66
2018-01-26T17:20:18.734Z,8.68
2018-01-26T17:21:18.776Z,8.78
2018-01-26T17:22:18.768Z,8.83
2018-01-26T17:23:18.690Z,8.84
2018-01-26T17:24:18.686Z,8.81
2018-01-26T17:25:18.687Z,8.81
2018-01-26T17:26:18.680Z,8.84
2018-01-26T17:27:18.676Z,8.84
2018-01-26T17:28:20.406Z,8.88
2018-01-26T17:29:18.669Z,8.87
2018-01-26T17:30:18.666Z,8.91
2018-01-26T17:31:18.662Z,8.78
2018-01-26T17:32:18.657Z,8.62
2018-01-26T17:33:18.651Z,8.50
2018-01-26T17:34:18.651Z,8.55
2018-01-26T17:35:18.643Z,8.55
2018-01-26T17:36:18.637Z,8.50
2018-01-26T17:37:18.682Z,8.72
2018-01-26T17:38:18.632Z,8.75
2018-01-26T17:39:18.624Z,8.72
2018-01-26T17:40:18.629Z,8.83
2018-01-26T17:41:18.618Z,8.72
2018-01-26T17:42:18.611Z,8.69
2018-01-26T17:43:18.601Z,8.66
2018-01-26T17:44:18.599Z,8.66
2018-01-26T17:45:18.600Z,8.60
2018-01-26T17:46:18.598Z,8.78
2018-01-26T17:47:18.594Z,8.75
2018-01-26T17:48:18.582Z,8.78
2018-01-26T17:49:18.575Z,8.87
2018-01-26T17:50:18.595Z,8.75
2018-01-26T17:51:18.567Z,8.78
2018-01-26T17:52:18.585Z,8.84
2018-01-26T17:53:18.561Z,8.79
2018-01-26T17:54:18.567Z,8.84
2018-01-26T17:55:18.555Z,8.84
2018-01-26T17:56:18.544Z,8.83
2018-01-26T17:57:18.542Z,8.87
2018-01-26T17:58:18.544Z,8.90
2018-01-26T17:59:18.538Z,8.76
2018-01-26T18:00:18.537Z,8.88
2018-01-26T18:01:20.412Z,8.87
2018-01-26T18:02:18.516Z,8.88
2018-01-26T18:03:18.515Z,8.86
2018-01-26T18:04:18.512Z,8.87
2018-01-26T18:05:18.529Z,8.86
2018-01-26T18:06:18.503Z,8.91
2018-01-26T18:07:18.496Z,8.88
2018-01-26T18:08:18.542Z,8.87
2018-01-26T18:09:18.503Z,8.87
2018-01-26T18:10:18.486Z,8.83
2018-01-26T18:11:18.480Z,8.88
2018-01-26T18:12:18.556Z,8.84
2018-01-26T18:13:18.477Z,8.91
2018-01-26T18:14:18.473Z,8.75
2018-01-26T18:15:18.468Z,8.86
2018-01-26T18:16:27.142Z,8.91
2018-01-26T18:18:11.929Z,8.86
2018-01-26T18:19:11.847Z,8.86
2018-01-26T18:20:12.006Z,8.87
2018-01-26T18:21:11.842Z,8.75
2018-01-26T18:22:11.822Z,8.87
2018-01-26T18:23:11.842Z,8.75
2018-01-26T18:24:11.814Z,8.83
2018-01-26T18:25:11.805Z,8.78
2018-01-26T18:26:11.945Z,8.88
2018-01-26T18:27:11.858Z,8.86
2018-01-26T18:28:11.797Z,8.86
2018-01-26T18:29:11.794Z,8.69
2018-01-26T18:30:11.782Z,8.63
2018-01-26T18:31:11.799Z,8.58
2018-01-26T18:32:11.811Z,8.60
2018-01-26T18:33:11.776Z,8.76
2018-01-26T18:34:11.814Z,8.73
2018-01-26T18:35:11.765Z,8.73
2018-01-26T18:36:11.760Z,8.87
2018-01-26T18:37:11.756Z,8.83
2018-01-26T18:38:11.751Z,8.86
2018-01-26T18:39:11.746Z,8.81
2018-01-26T18:40:11.750Z,8.88
2018-01-26T18:41:11.742Z,8.86
2018-01-26T18:42:11.732Z,8.86
2018-01-26T18:43:11.732Z,8.86
2018-01-26T18:44:11.721Z,8.94
2018-01-26T18:45:11.755Z,8.91
2018-01-26T18:46:11.761Z,8.86
2018-01-26T18:47:11.710Z,8.94
2018-01-26T18:48:13.392Z,8.99
2018-01-26T18:49:11.709Z,8.87
2018-01-26T18:50:11.719Z,8.91
2018-01-26T18:51:11.689Z,8.94
2018-01-26T18:52:11.688Z,8.87
2018-01-26T18:53:11.727Z,8.86
2018-01-26T18:54:11.684Z,8.87
2018-01-26T18:55:11.672Z,8.84
2018-01-26T18:56:11.666Z,8.88
2018-01-26T18:57:11.679Z,8.88
2018-01-26T18:58:11.658Z,8.87
2018-01-26T18:59:11.660Z,8.91
2018-01-26T19:00:11.649Z,8.87
2018-01-26T19:01:11.646Z,8.75
2018-01-26T19:02:11.645Z,8.68
2018-01-26T19:03:11.636Z,8.66
2018-01-26T19:04:11.630Z,8.65
2018-01-26T19:05:11.625Z,8.55
2018-01-26T19:06:11.973Z,8.54
2018-01-26T19:07:11.618Z,8.55
2018-01-26T19:08:11.663Z,8.57
2018-01-26T19:09:11.622Z,8.55
2018-01-26T19:10:11.605Z,8.54
2018-01-26T19:11:11.610Z,8.62
2018-01-26T19:12:11.594Z,8.63
2018-01-26T19:13:11.592Z,8.65
2018-01-26T19:14:11.596Z,8.68
2018-01-26T19:15:20.285Z,8.68
2018-01-26T19:17:06.303Z,8.73
2018-01-26T19:18:06.122Z,8.78
2018-01-26T19:19:06.034Z,8.71
2018-01-26T19:20:06.069Z,8.75
2018-01-26T19:21:05.984Z,8.76
2018-01-26T19:22:05.980Z,8.72
2018-01-26T19:23:05.977Z,8.68
2018-01-26T19:24:05.972Z,8.69
2018-01-26T19:25:05.966Z,8.78
2018-01-26T19:26:05.966Z,8.72
2018-01-26T19:27:05.957Z,8.75
2018-01-26T19:28:05.954Z,8.75
2018-01-26T19:29:06.052Z,8.68
2018-01-26T19:30:05.941Z,8.63
2018-01-26T19:31:05.935Z,8.78
2018-01-26T19:32:05.928Z,8.66
2018-01-26T19:33:05.926Z,8.72
2018-01-26T19:34:05.922Z,8.69
2018-01-26T19:35:05.922Z,8.68
2018-01-26T19:36:05.914Z,8.62
2018-01-26T19:37:06.001Z,8.69
2018-01-26T19:39:27.086Z,8.68
2018-01-26T19:40:27.018Z,8.62
2018-01-26T19:41:27.013Z,8.66
2018-01-26T19:42:27.016Z,8.69
2018-01-26T19:43:26.967Z,8.60
2018-01-26T19:44:26.993Z,8.66
2018-01-26T19:45:26.954Z,8.65
2018-01-26T19:46:26.997Z,8.65
2018-01-26T19:47:26.949Z,8.75
2018-01-26T19:48:35.614Z,8.65
2018-01-26T19:50:20.422Z,8.68
2018-01-26T19:51:20.403Z,8.63
2018-01-26T19:52:21.045Z,8.60
2018-01-26T19:53:20.446Z,8.57
2018-01-26T19:54:20.332Z,8.62
2018-01-26T19:55:20.311Z,8.48
2018-01-26T19:56:29.041Z,8.53
2018-01-26T19:58:13.774Z,8.57
2018-01-26T19:59:13.720Z,8.57
2018-01-26T20:00:13.679Z,8.63
2018-01-26T20:01:13.710Z,8.65
2018-01-26T20:02:13.666Z,8.58
2018-01-26T20:03:13.665Z,8.58
2018-01-26T20:04:13.657Z,8.57
2018-01-26T20:05:13.651Z,8.55
2018-01-26T20:06:13.659Z,8.50
2018-01-26T20:07:13.647Z,8.65
2018-01-26T20:08:13.648Z,8.65
2018-01-26T20:09:13.640Z,8.60
2018-01-26T20:10:13.651Z,8.66
2018-01-26T20:11:13.628Z,8.65
2018-01-26T20:12:13.623Z,8.63
2018-01-26T20:13:13.620Z,8.66
2018-01-26T20:14:13.610Z,8.76
2018-01-26T20:15:13.606Z,8.69
2018-01-26T20:16:13.611Z,8.72
2018-01-26T20:17:13.652Z,8.63
2018-01-26T20:18:13.598Z,8.72
2018-01-26T20:19:13.590Z,8.72
2018-01-26T20:20:13.587Z,8.65
2018-01-26T20:21:13.583Z,8.66
2018-01-26T20:22:13.594Z,8.65
2018-01-26T20:23:13.604Z,8.72